Observation data for Tulia on 08/20/2019      Previous  Date  Next       Current Mesonet Observations  Soil Data  Daily Summary Page  Observations in Plain Language
KTIS 200500Z 16011G16KT 29/15 A3008 RMK A01 T02860146  RH  044%=      5-min Rain = 0
KTIS 200505Z 16011KT 29/15 A3008 RMK A01 T02860146  RH  044%=      5-min Rain = 0
KTIS 200510Z 16012KT 29/15 A3008 RMK A01 T02850147  RH  045%=      5-min Rain = 0
KTIS 200515Z 16012KT 29/15 A3009 RMK A01 T02850147  RH  045%=      5-min Rain = 0
KTIS 200520Z 16012KT 29/15 A3009 RMK A01 T02850147  RH  045%=      5-min Rain = 0
KTIS 200525Z 16011G17KT 28/15 A3009 RMK A01 T02830148  RH  046%=      5-min Rain = 0
KTIS 200530Z 16011KT 28/15 A3009 RMK A01 T02830147  RH  045%=      5-min Rain = 0
KTIS 200535Z 16011KT 28/15 A3009 RMK A01 T02830148  RH  046%=      5-min Rain = 0
KTIS 200540Z 16011KT 28/15 A3009 RMK A01 T02820148  RH  046%=      5-min Rain = 0
KTIS 200545Z 17010KT 28/15 A3009 RMK A01 T02810147  RH  046%=      5-min Rain = 0
KTIS 200550Z 17010KT 28/15 A3009 RMK A01 T02810147  RH  046%=      5-min Rain = 0
KTIS 200555Z 17011KT 28/15 A3009 RMK A01 T02810147  RH  046%=      5-min Rain = 0
KTIS 200600Z 16011KT 28/15 A3009 RMK A01 T02800148  RH  047%=      5-min Rain = 0
KTIS 200605Z 16010KT 28/15 A3009 RMK A01 T02770148  RH  047%=      5-min Rain = 0
KTIS 200610Z 16010KT 28/15 A3009 RMK A01 T02760148  RH  048%=      5-min Rain = 0
KTIS 200615Z 16009KT 28/15 A3009 RMK A01 T02750148  RH  048%=      5-min Rain = 0
KTIS 200620Z 16009KT 27/15 A3009 RMK A01 T02740148  RH  048%=      5-min Rain = 0
KTIS 200625Z 17009KT 27/15 A3009 RMK A01 T02740148  RH  048%=      5-min Rain = 0
KTIS 200630Z 17009KT 27/15 A3009 RMK A01 T02740148  RH  048%=      5-min Rain = 0
KTIS 200635Z 17010KT 28/15 A3009 RMK A01 T02750147  RH  048%=      5-min Rain = 0
KTIS 200640Z 16009KT 27/15 A3009 RMK A01 T02740148  RH  048%=      5-min Rain = 0
KTIS 200645Z 17009KT 27/15 A3009 RMK A01 T02720148  RH  048%=      5-min Rain = 0
KTIS 200650Z 17009KT 27/15 A3009 RMK A01 T02730148  RH  048%=      5-min Rain = 0
KTIS 200655Z 17009KT 27/15 A3009 RMK A01 T02720148  RH  049%=      5-min Rain = 0
KTIS 200700Z 17009KT 27/15 A3009 RMK A01 T02720148  RH  049%=      5-min Rain = 0
KTIS 200705Z 17009KT 27/15 A3009 RMK A01 T02710148  RH  049%=      5-min Rain = 0
KTIS 200710Z 17009KT 27/15 A3008 RMK A01 T02720148  RH  049%=      5-min Rain = 0
KTIS 200715Z 17009KT 27/15 A3008 RMK A01 T02730148  RH  049%=      5-min Rain = 0
KTIS 200720Z 17009KT 27/15 A3008 RMK A01 T02730148  RH  049%=      5-min Rain = 0
KTIS 200725Z 17009G14KT 27/15 A3008 RMK A01 T02730149  RH  049%=      5-min Rain = 0
KTIS 200730Z 17009G14KT 27/15 A3008 RMK A01 T02720150  RH  049%=      5-min Rain = 0
KTIS 200735Z 17010KT 27/15 A3008 RMK A01 T02720149  RH  049%=      5-min Rain = 0
KTIS 200740Z 17009KT 27/15 A3009 RMK A01 T02730150  RH  049%=      5-min Rain = 0
KTIS 200745Z 17009G14KT 28/15 A3009 RMK A01 T02750149  RH  048%=      5-min Rain = 0
KTIS 200750Z 18009KT 28/15 A3009 RMK A01 T02760148  RH  048%=      5-min Rain = 0
KTIS 200755Z 18008KT 28/15 A3009 RMK A01 T02760147  RH  047%=      5-min Rain = 0
KTIS 200800Z 19008KT 28/15 A3009 RMK A01 T02750147  RH  047%=      5-min Rain = 0
KTIS 200805Z 19009KT 28/15 A3009 RMK A01 T02750147  RH  047%=      5-min Rain = 0
KTIS 200810Z 19008KT 28/15 A3009 RMK A01 T02750148  RH  048%=      5-min Rain = 0
KTIS 200815Z 19008KT 27/15 A3009 RMK A01 T02720147  RH  048%=      5-min Rain = 0
KTIS 200820Z 19009KT 27/15 A3009 RMK A01 T02710148  RH  049%=      5-min Rain = 0
KTIS 200825Z 19009KT 27/15 A3009 RMK A01 T02700148  RH  049%=      5-min Rain = 0
KTIS 200830Z 19009KT 27/15 A3009 RMK A01 T02680148  RH  050%=      5-min Rain = 0
KTIS 200835Z 19010KT 27/15 A3009 RMK A01 T02670148  RH  050%=      5-min Rain = 0
KTIS 200840Z 19009KT 27/15 A3009 RMK A01 T02670148  RH  050%=      5-min Rain = 0
KTIS 200845Z 20009KT 27/15 A3009 RMK A01 T02650148  RH  051%=      5-min Rain = 0
KTIS 200850Z 20009KT 26/15 A3009 RMK A01 T02640148  RH  051%=      5-min Rain = 0
KTIS 200855Z 19009KT 26/15 A3009 RMK A01 T02640147  RH  051%=      5-min Rain = 0
KTIS 200900Z 19011KT 27/15 A3009 RMK A01 T02660147  RH  050%=      5-min Rain = 0
KTIS 200905Z 19010KT 27/15 A3009 RMK A01 T02660148  RH  050%=      5-min Rain = 0
KTIS 200910Z 19009KT 27/15 A3009 RMK A01 T02650147  RH  050%=      5-min Rain = 0
KTIS 200915Z 19010KT 27/15 A3009 RMK A01 T02650148  RH  051%=      5-min Rain = 0
KTIS 200920Z 19010KT 27/15 A3009 RMK A01 T02650148  RH  051%=      5-min Rain = 0
KTIS 200925Z 20011KT 27/15 A3009 RMK A01 T02650148  RH  051%=      5-min Rain = 0
KTIS 200930Z 20011KT 27/15 A3009 RMK A01 T02650148  RH  051%=      5-min Rain = 0
KTIS 200935Z 19012KT 27/15 A3009 RMK A01 T02660148  RH  050%=      5-min Rain = 0
KTIS 200940Z 19013KT 27/15 A3009 RMK A01 T02660148  RH  050%=      5-min Rain = 0
KTIS 200945Z 19013KT 27/15 A3009 RMK A01 T02670149  RH  051%=      5-min Rain = 0
KTIS 200950Z 19012G17KT 27/15 A3009 RMK A01 T02670149  RH  051%=      5-min Rain = 0
KTIS 200955Z 19013KT 27/15 A3009 RMK A01 T02660149  RH  051%=      5-min Rain = 0
KTIS 201000Z 19012KT 27/15 A3009 RMK A01 T02650149  RH  051%=      5-min Rain = 0
KTIS 201005Z 20010KT 26/15 A301 RMK A01 T02640149  RH  051%=      5-min Rain = 0
KTIS 201010Z 20010KT 26/15 A301 RMK A01 T02630149  RH  052%=      5-min Rain = 0
KTIS 201015Z 20011KT 26/15 A301 RMK A01 T02630149  RH  052%=      5-min Rain = 0
KTIS 201020Z 20009KT 26/15 A301 RMK A01 T02610149  RH  052%=      5-min Rain = 0
KTIS 201025Z 20010KT 26/15 A301 RMK A01 T02600149  RH  053%=      5-min Rain = 0
KTIS 201030Z 20009KT 26/15 A301 RMK A01 T02600149  RH  053%=      5-min Rain = 0
KTIS 201035Z 21010KT 26/15 A301 RMK A01 T02590149  RH  053%=      5-min Rain = 0
KTIS 201040Z 21009KT 26/15 A301 RMK A01 T02570149  RH  053%=      5-min Rain = 0
KTIS 201045Z 21009KT 26/15 A301 RMK A01 T02570149  RH  054%=      5-min Rain = 0
KTIS 201050Z 21009KT 26/15 A3011 RMK A01 T02560149  RH  054%=      5-min Rain = 0
KTIS 201055Z 21008KT 25/15 A3011 RMK A01 T02540148  RH  054%=      5-min Rain = 0
KTIS 201100Z 21008KT 25/15 A3011 RMK A01 T02530148  RH  055%=      5-min Rain = 0
KTIS 201105Z 20009KT 25/15 A3011 RMK A01 T02520148  RH  055%=      5-min Rain = 0
KTIS 201110Z 19008KT 25/15 A3011 RMK A01 T02500147  RH  055%=      5-min Rain = 0
KTIS 201115Z 19008KT 25/15 A3011 RMK A01 T02480148  RH  056%=      5-min Rain = 0
KTIS 201120Z 19008KT 25/15 A3011 RMK A01 T02480148  RH  056%=      5-min Rain = 0
KTIS 201125Z 19008KT 25/15 A3011 RMK A01 T02480148  RH  056%=      5-min Rain = 0
KTIS 201130Z 19008KT 25/15 A3011 RMK A01 T02470147  RH  056%=      5-min Rain = 0
KTIS 201135Z 19008KT 25/15 A3011 RMK A01 T02470147  RH  056%=      5-min Rain = 0
KTIS 201140Z 20009KT 25/15 A3011 RMK A01 T02460147  RH  056%=      5-min Rain = 0
KTIS 201145Z 20008KT 25/15 A3011 RMK A01 T02460146  RH  056%=      5-min Rain = 0
KTIS 201150Z 20008KT 25/15 A3011 RMK A01 T02460146  RH  056%=      5-min Rain = 0
KTIS 201155Z 20008KT 25/15 A3011 RMK A01 T02460146  RH  056%=      5-min Rain = 0
KTIS 201200Z 20008KT 25/15 A3011 RMK A01 T02460145  RH  056%=      5-min Rain = 0
KTIS 201205Z 21008KT 25/15 A3011 RMK A01 T02460145  RH  056%=      5-min Rain = 0
KTIS 201210Z 21008KT 25/15 A3011 RMK A01 T02450145  RH  056%=      5-min Rain = 0
KTIS 201215Z 21007KT 24/15 A3011 RMK A01 T02440145  RH  056%=      5-min Rain = 0
KTIS 201220Z 21007KT 24/15 A3012 RMK A01 T02430145  RH  057%=      5-min Rain = 0
KTIS 201225Z 20008KT 24/15 A3012 RMK A01 T02420145  RH  057%=      5-min Rain = 0
KTIS 201230Z 20007KT 24/15 A3012 RMK A01 T02410145  RH  057%=      5-min Rain = 0
KTIS 201235Z 19008KT 24/15 A3012 RMK A01 T02410145  RH  057%=      5-min Rain = 0
KTIS 201240Z 19008KT 24/15 A3012 RMK A01 T02420146  RH  057%=      5-min Rain = 0
KTIS 201245Z 20009KT 24/15 A3012 RMK A01 T02420145  RH  057%=      5-min Rain = 0
KTIS 201250Z 20009KT 24/15 A3012 RMK A01 T02430145  RH  057%=      5-min Rain = 0
KTIS 201255Z 20009KT 24/15 A3012 RMK A01 T02440145  RH  056%=      5-min Rain = 0
KTIS 201300Z 21009KT 24/15 A3012 RMK A01 T02440145  RH  056%=      5-min Rain = 0
KTIS 201305Z 21008KT 25/15 A3012 RMK A01 T02450145  RH  056%=      5-min Rain = 0
KTIS 201310Z 21008KT 25/15 A3013 RMK A01 T02470145  RH  056%=      5-min Rain = 0
KTIS 201315Z 21007KT 25/15 A3013 RMK A01 T02490146  RH  055%=      5-min Rain = 0
KTIS 201320Z 21008KT 25/15 A3013 RMK A01 T02510145  RH  054%=      5-min Rain = 0
KTIS 201325Z 21008KT 25/15 A3013 RMK A01 T02530145  RH  054%=      5-min Rain = 0
KTIS 201330Z 21008KT 26/15 A3014 RMK A01 T02550145  RH  053%=      5-min Rain = 0
KTIS 201335Z 21009KT 26/15 A3014 RMK A01 T02550145  RH  053%=      5-min Rain = 0
KTIS 201340Z 20008KT 26/15 A3014 RMK A01 T02560145  RH  053%=      5-min Rain = 0
KTIS 201345Z 20009KT 26/15 A3014 RMK A01 T02560145  RH  053%=      5-min Rain = 0
KTIS 201350Z 20009KT 26/15 A3014 RMK A01 T02560145  RH  053%=      5-min Rain = 0
KTIS 201355Z 21008KT 26/15 A3014 RMK A01 T02570145  RH  052%=      5-min Rain = 0
KTIS 201400Z 21007KT 26/15 A3014 RMK A01 T02590145  RH  051%=      5-min Rain = 0
KTIS 201405Z 21008KT 27/15 A3014 RMK A01 T02670146  RH  050%=      5-min Rain = 0
KTIS 201410Z 21009KT 28/15 A3014 RMK A01 T02760146  RH  047%=      5-min Rain = 0
KTIS 201415Z 22010G15KT 28/15 A3014 RMK A01 T02830147  RH  045%=      5-min Rain = 0
KTIS 201420Z 23012KT 29/15 A3014 RMK A01 T02880147  RH  044%=      5-min Rain = 0
KTIS 201425Z 23013KT 29/15 A3014 RMK A01 T02920149  RH  044%=      5-min Rain = 0
KTIS 201430Z 24014KT 30/15 A3014 RMK A01 T02950149  RH  043%=      5-min Rain = 0
KTIS 201435Z 22016G21KT 29/15 A3014 RMK A01 T02930149  RH  044%=      5-min Rain = 0
KTIS 201440Z 22014G19KT 30/15 A3014 RMK A01 T02970151  RH  043%=      5-min Rain = 0
KTIS 201445Z 22017KT 30/15 A3014 RMK A01 T02960151  RH  043%=      5-min Rain = 0
KTIS 201450Z 23015KT 30/15 A3014 RMK A01 T02990152  RH  043%=      5-min Rain = 0
KTIS 201455Z 23016G21KT 30/15 A3015 RMK A01 T03010153  RH  043%=      5-min Rain = 0
KTIS 201500Z 23016KT 30/15 A3015 RMK A01 T02990152  RH  043%=      5-min Rain = 0
KTIS 201505Z 22015KT 30/15 A3015 RMK A01 T03010153  RH  043%=      5-min Rain = 0
KTIS 201510Z 23015G20KT 30/15 A3015 RMK A01 T03040153  RH  042%=      5-min Rain = 0
KTIS 201515Z 22014G19KT 31/15 A3015 RMK A01 T03060154  RH  042%=      5-min Rain = 0
KTIS 201520Z 23015KT 30/15 A3015 RMK A01 T03030152  RH  042%=      5-min Rain = 0
KTIS 201525Z 22013KT 30/15 A3015 RMK A01 T03030153  RH  042%=      5-min Rain = 0
KTIS 201530Z 22015KT 31/15 A3015 RMK A01 T03050153  RH  042%=      5-min Rain = 0
KTIS 201535Z 23015G20KT 31/15 A3016 RMK A01 T03050153  RH  042%=      5-min Rain = 0
KTIS 201540Z 23014KT 31/16 A3015 RMK A01 T03080155  RH  041%=      5-min Rain = 0
KTIS 201545Z 24015G21KT 31/16 A3015 RMK A01 T03100155  RH  041%=      5-min Rain = 0
KTIS 201550Z 23014G19KT 31/16 A3016 RMK A01 T03110155  RH  041%=      5-min Rain = 0
KTIS 201555Z 25015KT 31/16 A3016 RMK A01 T03110155  RH  041%=      5-min Rain = 0
KTIS 201600Z 25016KT 31/16 A3015 RMK A01 T03120155  RH  040%=      5-min Rain = 0
KTIS 201605Z 24015KT 31/15 A3016 RMK A01 T03130154  RH  040%=      5-min Rain = 0
KTIS 201610Z 25013KT 32/15 A3016 RMK A01 T03150154  RH  040%=      5-min Rain = 0
KTIS 201615Z 25013G18KT 32/15 A3016 RMK A01 T03180154  RH  039%=      5-min Rain = 0
KTIS 201620Z 25012KT 32/15 A3016 RMK A01 T03190153  RH  039%=      5-min Rain = 0
KTIS 201625Z 23011KT 33/16 A3016 RMK A01 T03250155  RH  038%=      5-min Rain = 0
KTIS 201630Z 23012KT 32/15 A3016 RMK A01 T03220154  RH  038%=      5-min Rain = 0
KTIS 201635Z 24011G17KT 32/15 A3016 RMK A01 T03210153  RH  038%=      5-min Rain = 0
KTIS 201640Z 23009G15KT 32/15 A3016 RMK A01 T03220153  RH  038%=      5-min Rain = 0
KTIS 201645Z 22011KT 33/15 A3016 RMK A01 T03270154  RH  037%=      5-min Rain = 0
KTIS 201650Z 22012G17KT 33/15 A3016 RMK A01 T03280151  RH  036%=      5-min Rain = 0
KTIS 201655Z 22009G15KT 33/15 A3016 RMK A01 T03260152  RH  037%=      5-min Rain = 0
KTIS 201700Z 22011G16KT 33/15 A3016 RMK A01 T03290149  RH  035%=      5-min Rain = 0
KTIS 201705Z 21010G16KT 33/15 A3016 RMK A01 T03270147  RH  035%=      5-min Rain = 0
KTIS 201710Z 22010G15KT 33/15 A3016 RMK A01 T03280146  RH  035%=      5-min Rain = 0
KTIS 201715Z 22009G15KT 33/15 A3015 RMK A01 T03300147  RH  035%=      5-min Rain = 0
KTIS 201720Z 22010KT 33/15 A3015 RMK A01 T03270148  RH  035%=      5-min Rain = 0
KTIS 201725Z 24007G12KT 33/15 A3015 RMK A01 T03300148  RH  035%=      5-min Rain = 0
KTIS 201730Z 23010KT 33/15 A3015 RMK A01 T03300147  RH  035%=      5-min Rain = 0
KTIS 201735Z 22009G16KT 33/15 A3015 RMK A01 T03310147  RH  034%=      5-min Rain = 0
KTIS 201740Z 24007G15KT 33/15 A3015 RMK A01 T03340149  RH  034%=      5-min Rain = 0
KTIS 201745Z 23008G15KT 34/15 A3015 RMK A01 T03390148  RH  033%=      5-min Rain = 0
KTIS 201750Z 21006G11KT 34/15 A3015 RMK A01 T03390146  RH  033%=      5-min Rain = 0
KTIS 201755Z 21008G14KT 34/14 A3014 RMK A01 T03420144  RH  032%=      5-min Rain = 0
KTIS 201800Z 25009KT 34/14 A3014 RMK A01 T03430136  RH  030%=      5-min Rain = 0
KTIS 201805Z 22005G10KT 34/14 A3014 RMK A01 T03410142  RH  031%=      5-min Rain = 0
KTIS 201810Z 20007G12KT 35/15 A3014 RMK A01 T03450145  RH  031%=      5-min Rain = 0
KTIS 201815Z 25006G11KT 35/14 A3014 RMK A01 T03450141  RH  031%=      5-min Rain = 0
KTIS 201820Z 21007G14KT 34/14 A3014 RMK A01 T03410137  RH  030%=      5-min Rain = 0
KTIS 201825Z 21008G13KT 35/14 A3014 RMK A01 T03450139  RH  030%=      5-min Rain = 0
KTIS 201830Z 19009G15KT 34/14 A3013 RMK A01 T03420138  RH  031%=      5-min Rain = 0
KTIS 201835Z 19007G12KT 35/13 A3013 RMK A01 T03490133  RH  028%=      5-min Rain = 0
KTIS 201840Z 20006G13KT 35/13 A3013 RMK A01 T03520133  RH  028%=      5-min Rain = 0
KTIS 201845Z 20008G13KT 35/13 A3013 RMK A01 T03480133  RH  029%=      5-min Rain = 0
KTIS 201850Z 21009G15KT 36/13 A3013 RMK A01 T03570134  RH  027%=      5-min Rain = 0
KTIS 201855Z 21009KT 35/14 A3013 RMK A01 T03500138  RH  029%=      5-min Rain = 0
KTIS 201900Z 23007G12KT 35/13 A3013 RMK A01 T03490134  RH  029%=      5-min Rain = 0
KTIS 201905Z 20005KT 34/14 A3012 RMK A01 T03440137  RH  030%=      5-min Rain = 0
KTIS 201910Z 18008KT 35/14 A3012 RMK A01 T03490139  RH  030%=      5-min Rain = 0
KTIS 201915Z 19009KT 35/14 A3012 RMK A01 T03540138  RH  029%=      5-min Rain = 0
KTIS 201920Z 16009KT 36/15 A3012 RMK A01 T03560146  RH  030%=      5-min Rain = 0
KTIS 201925Z 18007G16KT 35/14 A3012 RMK A01 T03540141  RH  029%=      5-min Rain = 0
KTIS 201930Z 18010G16KT 35/14 A3012 RMK A01 T03510138  RH  029%=      5-min Rain = 0
KTIS 201935Z 23008G14KT 35/13 A3011 RMK A01 T03480129  RH  028%=      5-min Rain = 0
KTIS 201940Z 22013G18KT 36/13 A3011 RMK A01 T03570134  RH  027%=      5-min Rain = 0
KTIS 201945Z 20011G17KT 35/14 A3011 RMK A01 T03510142  RH  030%=      5-min Rain = 0
KTIS 201950Z 22005G10KT 35/14 A3011 RMK A01 T03460141  RH  031%=      5-min Rain = 0
KTIS 201955Z 19008G14KT 35/14 A3011 RMK A01 T03490139  RH  030%=      5-min Rain = 0
KTIS 202000Z 19008G13KT 35/14 A3011 RMK A01 T03480140  RH  030%=      5-min Rain = 0
KTIS 202005Z 19006G14KT 35/14 A3011 RMK A01 T03480142  RH  030%=      5-min Rain = 0
KTIS 202010Z 18005KT 35/14 A3011 RMK A01 T03500143  RH  030%=      5-min Rain = 0
KTIS 202015Z 20007KT 35/13 A3011 RMK A01 T03450134  RH  029%=      5-min Rain = 0
KTIS 202020Z 22005KT 35/14 A301 RMK A01 T03460135  RH  029%=      5-min Rain = 0
KTIS 202025Z 24008G13KT 35/14 A301 RMK A01 T03460142  RH  031%=      5-min Rain = 0
KTIS 202030Z 24009G14KT 34/14 A301 RMK A01 T03440136  RH  030%=      5-min Rain = 0
KTIS 202035Z 22005KT 34/14 A301 RMK A01 T03380135  RH  031%=      5-min Rain = 0
KTIS 202040Z 22009KT 34/14 A301 RMK A01 T03390139  RH  031%=      5-min Rain = 0
KTIS 202045Z 24009KT 34/14 A301 RMK A01 T03390142  RH  032%=      5-min Rain = 0
KTIS 202050Z 24008G13KT 34/14 A3009 RMK A01 T03380143  RH  032%=      5-min Rain = 0
KTIS 202055Z 25007KT 34/14 A3009 RMK A01 T03370144  RH  033%=      5-min Rain = 0
KTIS 202100Z 24009KT 34/15 A3009 RMK A01 T03380146  RH  033%=      5-min Rain = 0
KTIS 202105Z 24007KT 34/15 A3009 RMK A01 T03370147  RH  033%=      5-min Rain = 0
KTIS 202110Z 23007KT 34/15 A3008 RMK A01 T03360148  RH  034%=      5-min Rain = 0
KTIS 202115Z 24008KT 34/15 A3008 RMK A01 T03350149  RH  034%=      5-min Rain = 0
KTIS 202120Z 24007KT 33/15 A3008 RMK A01 T03340150  RH  035%=      5-min Rain = 0
KTIS 202125Z 22008KT 33/15 A3008 RMK A01 T03340150  RH  034%=      5-min Rain = 0
KTIS 202130Z 23008KT 34/15 A3008 RMK A01 T03350149  RH  034%=      5-min Rain = 0
KTIS 202135Z 22008KT 33/15 A3007 RMK A01 T03340150  RH  035%=      5-min Rain = 0
KTIS 202140Z 22007KT 34/15 A3007 RMK A01 T03360149  RH  034%=      5-min Rain = 0
KTIS 202145Z 20008KT 34/14 A3007 RMK A01 T03370143  RH  032%=      5-min Rain = 0
KTIS 202150Z 20009KT 34/14 A3006 RMK A01 T03400140  RH  031%=      5-min Rain = 0
KTIS 202155Z 20010KT 34/14 A3006 RMK A01 T03420139  RH  031%=      5-min Rain = 0
KTIS 202200Z 19011KT 34/14 A3006 RMK A01 T03420135  RH  030%=      5-min Rain = 0
KTIS 202205Z 20010KT 34/14 A3006 RMK A01 T03440135  RH  030%=      5-min Rain = 0
KTIS 202210Z 19010KT 35/14 A3006 RMK A01 T03470135  RH  029%=      5-min Rain = 0
KTIS 202215Z 18010KT 36/14 A3005 RMK A01 T03560137  RH  028%=      5-min Rain = 0
KTIS 202220Z 17012KT 36/14 A3005 RMK A01 T03550141  RH  029%=      5-min Rain = 0
KTIS 202225Z 18010KT 36/14 A3005 RMK A01 T03590140  RH  028%=      5-min Rain = 0
KTIS 202230Z 19013KT 36/14 A3005 RMK A01 T03600139  RH  028%=      5-min Rain = 0
KTIS 202235Z 21011G17KT 36/14 A3005 RMK A01 T03590135  RH  027%=      5-min Rain = 0
KTIS 202240Z 20013G18KT 36/14 A3005 RMK A01 T03610135  RH  027%=      5-min Rain = 0
KTIS 202245Z 18010G15KT 36/13 A3005 RMK A01 T03590134  RH  027%=      5-min Rain = 0
KTIS 202250Z 20012KT 36/14 A3005 RMK A01 T03620137  RH  027%=      5-min Rain = 0
KTIS 202255Z 20011G16KT 36/14 A3005 RMK A01 T03590137  RH  028%=      5-min Rain = 0
KTIS 202300Z 19013G19KT 36/14 A3005 RMK A01 T03600135  RH  027%=      5-min Rain = 0
KTIS 202305Z 19011G18KT 36/13 A3005 RMK A01 T03570134  RH  027%=      5-min Rain = 0
KTIS 202310Z 19012G17KT 36/13 A3005 RMK A01 T03600130  RH  026%=      5-min Rain = 0
KTIS 202315Z 19015KT 36/13 A3005 RMK A01 T03600128  RH  026%=      5-min Rain = 0
KTIS 202320Z 20012G17KT 36/13 A3005 RMK A01 T03570126  RH  026%=      5-min Rain = 0
KTIS 202325Z 19013KT 36/12 A3005 RMK A01 T03590123  RH  025%=      5-min Rain = 0
KTIS 202330Z 16010G15KT 35/13 A3005 RMK A01 T03540132  RH  028%=      5-min Rain = 0
KTIS 202335Z 18013G19KT 35/13 A3005 RMK A01 T03510129  RH  027%=      5-min Rain = 0
KTIS 202340Z 19011KT 36/13 A3006 RMK A01 T03560128  RH  026%=      5-min Rain = 0
KTIS 202345Z 18012KT 36/13 A3006 RMK A01 T03560129  RH  027%=      5-min Rain = 0
KTIS 202350Z 18012KT 35/13 A3006 RMK A01 T03540128  RH  027%=      5-min Rain = 0
KTIS 202355Z 17011KT 35/13 A3006 RMK A01 T03490131  RH  028%=      5-min Rain = 0
KTIS 210000Z 18012KT 35/12 A3006 RMK A01 T03510123  RH  026%=      5-min Rain = 0
KTIS 210005Z 18012KT 35/12 A3006 RMK A01 T03520124  RH  026%=      5-min Rain = 0
KTIS 210010Z 17010KT 35/13 A3006 RMK A01 T03470128  RH  028%=      5-min Rain = 0
KTIS 210015Z 17010G15KT 35/13 A3006 RMK A01 T03500126  RH  027%=      5-min Rain = 0
KTIS 210020Z 19011KT 35/12 A3006 RMK A01 T03510117  RH  025%=      5-min Rain = 0
KTIS 210025Z 17011KT 35/12 A3006 RMK A01 T03470122  RH  027%=      5-min Rain = 0
KTIS 210030Z 18011KT 34/12 A3006 RMK A01 T03390123  RH  028%=      5-min Rain = 0
KTIS 210035Z 19012KT 34/12 A3006 RMK A01 T03430118  RH  027%=      5-min Rain = 0
KTIS 210040Z 20013KT 34/12 A3006 RMK A01 T03420116  RH  026%=      5-min Rain = 0
KTIS 210045Z 20011KT 34/12 A3006 RMK A01 T03410116  RH  026%=      5-min Rain = 0
KTIS 210050Z 20009KT 34/12 A3006 RMK A01 T03380115  RH  027%=      5-min Rain = 0
KTIS 210055Z 20009KT 34/11 A3006 RMK A01 T03360113  RH  027%=      5-min Rain = 0
KTIS 210100Z 20008KT 33/11 A3006 RMK A01 T03340113  RH  027%=      5-min Rain = 0
KTIS 210105Z 20007KT 33/11 A3006 RMK A01 T03310113  RH  027%=      5-min Rain = 0
KTIS 210110Z 19008KT 33/11 A3006 RMK A01 T03290113  RH  028%=      5-min Rain = 0
KTIS 210115Z 19007KT 33/11 A3006 RMK A01 T03260114  RH  028%=      5-min Rain = 0
KTIS 210120Z 19007KT 33/12 A3007 RMK A01 T03250115  RH  029%=      5-min Rain = 0
KTIS 210125Z 17006KT 32/13 A3007 RMK A01 T03150126  RH  033%=      5-min Rain = 0
KTIS 210130Z 16006KT 30/14 A3007 RMK A01 T03000135  RH  038%=      5-min Rain = 0
KTIS 210135Z 15007KT 29/14 A3008 RMK A01 T02910141  RH  042%=      5-min Rain = 0
KTIS 210140Z 16007KT 29/14 A3008 RMK A01 T02910137  RH  041%=      5-min Rain = 0
KTIS 210145Z 16008KT 30/14 A3008 RMK A01 T02970135  RH  038%=      5-min Rain = 0
KTIS 210150Z 16006KT 30/14 A3008 RMK A01 T03000135  RH  038%=      5-min Rain = 0
KTIS 210155Z 17006KT 30/14 A3008 RMK A01 T03000136  RH  038%=      5-min Rain = 0
KTIS 210200Z 16006KT 30/14 A3008 RMK A01 T02960140  RH  040%=      5-min Rain = 0
KTIS 210205Z 15005KT 29/15 A3009 RMK A01 T02890145  RH  043%=      5-min Rain = 0
KTIS 210210Z 12008KT 29/14 A3009 RMK A01 T02850138  RH  042%=      5-min Rain = 0
KTIS 210215Z 13008KT 29/13 A3009 RMK A01 T02870134  RH  041%=      5-min Rain = 0
KTIS 210220Z 15007KT 28/14 A3009 RMK A01 T02820136  RH  042%=      5-min Rain = 0
KTIS 210225Z 14008KT 28/14 A3009 RMK A01 T02810137  RH  043%=      5-min Rain = 0
KTIS 210230Z 13008KT 28/14 A3009 RMK A01 T02780138  RH  044%=      5-min Rain = 0
KTIS 210235Z 13008KT 28/14 A3009 RMK A01 T02790137  RH  043%=      5-min Rain = 0
KTIS 210240Z 13008KT 28/14 A3009 RMK A01 T02790137  RH  043%=      5-min Rain = 0
KTIS 210245Z 13009KT 28/14 A3009 RMK A01 T02800138  RH  043%=      5-min Rain = 0
KTIS 210250Z 13009KT 28/14 A3009 RMK A01 T02810138  RH  043%=      5-min Rain = 0
KTIS 210255Z 14009KT 28/14 A301 RMK A01 T02800139  RH  044%=      5-min Rain = 0
KTIS 210300Z 14008KT 28/14 A301 RMK A01 T02790139  RH  044%=      5-min Rain = 0
KTIS 210305Z 14008KT 28/14 A301 RMK A01 T02770140  RH  045%=      5-min Rain = 0
KTIS 210310Z 14009KT 28/14 A301 RMK A01 T02780139  RH  044%=      5-min Rain = 0
KTIS 210315Z 14009KT 28/14 A301 RMK A01 T02760139  RH  045%=      5-min Rain = 0
KTIS 210320Z 14008KT 28/14 A301 RMK A01 T02750140  RH  045%=      5-min Rain = 0
KTIS 210325Z 15009KT 27/14 A301 RMK A01 T02730139  RH  046%=      5-min Rain = 0
KTIS 210330Z 15010KT 27/14 A3009 RMK A01 T02740138  RH  045%=      5-min Rain = 0
KTIS 210335Z 15010KT 28/14 A301 RMK A01 T02760137  RH  044%=      5-min Rain = 0
KTIS 210340Z 15011KT 28/14 A301 RMK A01 T02760136  RH  044%=      5-min Rain = 0
KTIS 210345Z 15010KT 28/14 A3009 RMK A01 T02780135  RH  043%=      5-min Rain = 0
KTIS 210350Z 16010KT 28/14 A301 RMK A01 T02770135  RH  043%=      5-min Rain = 0
KTIS 210355Z 16011KT 28/13 A301 RMK A01 T02770134  RH  043%=      5-min Rain = 0
KTIS 210400Z 15010KT 28/13 A301 RMK A01 T02750134  RH  044%=      5-min Rain = 0
KTIS 210405Z 15010KT 27/13 A301 RMK A01 T02730134  RH  044%=      5-min Rain = 0
KTIS 210410Z 15012KT 27/13 A301 RMK A01 T02720132  RH  044%=      5-min Rain = 0
KTIS 210415Z 15012KT 27/13 A301 RMK A01 T02740132  RH  043%=      5-min Rain = 0
KTIS 210420Z 15013KT 28/13 A301 RMK A01 T02750131  RH  043%=      5-min Rain = 0
KTIS 210425Z 15013KT 28/13 A301 RMK A01 T02760131  RH  043%=      5-min Rain = 0
KTIS 210430Z 15012G17KT 27/13 A301 RMK A01 T02740132  RH  043%=      5-min Rain = 0
KTIS 210435Z 15013KT 28/13 A301 RMK A01 T02750131  RH  043%=      5-min Rain = 0
KTIS 210440Z 15012KT 27/13 A301 RMK A01 T02740132  RH  043%=      5-min Rain = 0
KTIS 210445Z 15011KT 27/13 A301 RMK A01 T02730133  RH  044%=      5-min Rain = 0
KTIS 210450Z 16012KT 27/13 A301 RMK A01 T02730133  RH  044%=      5-min Rain = 0
KTIS 210455Z 16012KT 27/13 A301 RMK A01 T02730133  RH  044%=      5-min Rain = 0

Page generated in 0.0084 seconds.